createdAt,value
2018-01-12T00:00:22.792Z,62.75
2018-01-12T00:02:50.303Z,62.37
2018-01-12T00:05:17.817Z,62.29
2018-01-12T00:07:45.420Z,64.11
2018-01-12T00:10:12.926Z,63.31
2018-01-12T00:12:40.452Z,63.30
2018-01-12T00:15:07.994Z,62.92
2018-01-12T00:17:35.554Z,62.43
2018-01-12T00:20:03.113Z,62.22
2018-01-12T00:22:30.769Z,62.24
2018-01-12T00:24:59.050Z,62.38
2018-01-12T00:27:26.565Z,62.74
2018-01-12T00:29:54.167Z,62.46
2018-01-12T00:32:21.730Z,62.55
2018-01-12T00:34:49.287Z,62.57
2018-01-12T00:37:17.054Z,62.16
2018-01-12T00:39:44.610Z,62.23
2018-01-12T00:42:12.177Z,62.13
2018-01-12T00:44:39.823Z,62.00
2018-01-12T00:47:07.338Z,61.86
2018-01-12T00:49:34.854Z,62.13
2018-01-12T00:52:02.609Z,62.63
2018-01-12T00:54:30.129Z,63.08
2018-01-12T00:56:57.649Z,62.83
2018-01-12T00:59:25.235Z,62.70
2018-01-12T01:01:52.750Z,62.57
2018-01-12T01:04:20.305Z,63.39
2018-01-12T01:06:47.889Z,63.49
2018-01-12T01:09:15.420Z,63.29
2018-01-12T01:11:42.980Z,63.25
2018-01-12T01:14:10.642Z,63.26
2018-01-12T01:16:38.216Z,63.23
2018-01-12T01:19:05.894Z,63.21
2018-01-12T01:21:33.462Z,63.05
2018-01-12T01:24:00.980Z,63.58
2018-01-12T01:26:28.484Z,63.73
2018-01-12T01:28:56.291Z,63.77
2018-01-12T01:31:23.815Z,63.76
2018-01-12T01:33:51.336Z,63.94
2018-01-12T01:36:18.898Z,63.59
2018-01-12T01:38:46.413Z,63.95
2018-01-12T01:41:13.932Z,63.96
2018-01-12T01:43:41.477Z,64.00
2018-01-12T01:46:09.013Z,64.62
2018-01-12T01:48:41.590Z,63.80
2018-01-12T01:51:09.149Z,64.05
2018-01-12T01:53:36.709Z,64.52
2018-01-12T01:56:04.277Z,64.31
2018-01-12T01:58:31.827Z,64.41
2018-01-12T02:00:59.338Z,65.10
2018-01-12T02:03:27.314Z,64.83
2018-01-12T02:05:54.982Z,64.61
2018-01-12T02:08:22.489Z,64.79
2018-01-12T02:10:50.460Z,65.36
2018-01-12T02:13:17.967Z,65.56
2018-01-12T02:15:45.482Z,65.26
2018-01-12T02:18:13.034Z,65.66
2018-01-12T02:20:40.575Z,65.72
2018-01-12T02:23:08.089Z,66.25
2018-01-12T02:25:35.898Z,66.07
2018-01-12T02:28:03.405Z,66.59
2018-01-12T02:30:30.928Z,65.27
2018-01-12T02:32:58.679Z,65.14
2018-01-12T02:35:26.194Z,65.07
2018-01-12T02:37:53.705Z,64.90
2018-01-12T02:40:21.655Z,65.14
2018-01-12T02:42:49.178Z,65.19
2018-01-12T02:45:16.702Z,65.30
2018-01-12T02:47:44.649Z,65.24
2018-01-12T02:50:12.207Z,65.19
2018-01-12T02:52:39.717Z,65.30
2018-01-12T02:55:07.272Z,65.24
2018-01-12T02:57:34.783Z,65.19
2018-01-12T03:00:02.302Z,65.17
2018-01-12T03:02:30.104Z,65.17
2018-01-12T03:04:57.664Z,65.42
2018-01-12T03:07:25.234Z,65.15
2018-01-12T03:09:52.824Z,65.03
2018-01-12T03:12:20.341Z,65.21
2018-01-12T03:14:47.901Z,65.19
2018-01-12T03:17:15.664Z,65.06
2018-01-12T03:19:43.178Z,64.94
2018-01-12T03:22:10.693Z,64.79
2018-01-12T03:24:38.649Z,65.00
2018-01-12T03:27:06.209Z,64.88
2018-01-12T03:29:33.721Z,64.58
2018-01-12T03:32:01.410Z,64.60
2018-01-12T03:34:28.930Z,64.58
2018-01-12T03:36:56.446Z,64.18
2018-01-12T03:39:24.209Z,64.05
2018-01-12T03:41:51.722Z,64.18
2018-01-12T03:44:19.234Z,63.80
2018-01-12T03:46:47.069Z,63.58
2018-01-12T03:49:14.578Z,63.65
2018-01-12T03:51:42.089Z,63.87
2018-01-12T03:54:09.630Z,63.84
2018-01-12T03:56:37.143Z,63.99
2018-01-12T03:59:04.681Z,64.22
2018-01-12T04:01:32.237Z,64.65
2018-01-12T04:03:59.746Z,64.61
2018-01-12T04:06:27.257Z,64.46
2018-01-12T04:08:55.021Z,64.20
2018-01-12T04:11:22.542Z,64.23
2018-01-12T04:13:50.058Z,64.42
2018-01-12T04:16:17.714Z,64.82
2018-01-12T04:18:45.256Z,64.14
2018-01-12T04:21:12.829Z,65.03
2018-01-12T04:23:40.393Z,64.57
2018-01-12T04:26:07.935Z,64.33
2018-01-12T04:28:35.446Z,64.30
2018-01-12T04:31:03.003Z,64.25
2018-01-12T04:33:30.518Z,64.46
2018-01-12T04:35:58.376Z,64.30
2018-01-12T04:38:26.345Z,64.29
2018-01-12T04:40:53.853Z,64.36
2018-01-12T04:43:21.772Z,63.96
2018-01-12T04:45:49.514Z,63.91
2018-01-12T04:48:17.030Z,64.06
2018-01-12T04:50:44.553Z,63.98
2018-01-12T04:53:12.498Z,63.96
2018-01-12T04:55:40.009Z,64.11
2018-01-12T04:58:07.686Z,64.06
2018-01-12T05:00:35.488Z,64.18
2018-01-12T05:03:03.011Z,63.86
2018-01-12T05:05:30.543Z,63.64
2018-01-12T05:07:58.386Z,63.30
2018-01-12T05:10:25.945Z,63.82
2018-01-12T05:12:53.506Z,63.51
2018-01-12T05:15:21.473Z,63.41
2018-01-12T05:17:49.032Z,63.81
2018-01-12T05:20:16.592Z,63.78
2018-01-12T05:22:44.546Z,63.69
2018-01-12T05:25:12.053Z,63.59
2018-01-12T05:27:39.613Z,63.64
2018-01-12T05:30:07.175Z,63.51
2018-01-12T05:32:34.698Z,63.34
2018-01-12T05:35:02.253Z,63.38
2018-01-12T05:37:29.807Z,63.33
2018-01-12T05:39:57.371Z,63.06
2018-01-12T05:42:24.931Z,63.11
2018-01-12T05:44:52.670Z,62.84
2018-01-12T05:47:20.183Z,63.74
2018-01-12T05:49:47.704Z,62.99
2018-01-12T05:52:15.275Z,62.60
2018-01-12T05:54:42.832Z,62.63
2018-01-12T05:57:10.389Z,63.12
2018-01-12T05:59:37.942Z,62.78
2018-01-12T06:02:17.414Z,62.66
2018-01-12T06:04:57.358Z,62.93
2018-01-12T06:07:24.958Z,62.76
2018-01-12T06:09:52.485Z,62.70
2018-01-12T06:12:20.328Z,63.36
2018-01-12T06:14:47.841Z,63.37
2018-01-12T06:17:15.349Z,63.33
2018-01-12T06:19:42.913Z,63.80
2018-01-12T06:22:10.451Z,63.49
2018-01-12T06:24:37.975Z,63.71
2018-01-12T06:27:05.545Z,63.26
2018-01-12T06:29:33.058Z,63.37
2018-01-12T06:32:00.630Z,63.68
2018-01-12T06:34:28.557Z,63.60
2018-01-12T06:36:56.115Z,63.52
2018-01-12T06:39:23.689Z,63.76
2018-01-12T06:41:51.262Z,63.53
2018-01-12T06:44:18.795Z,63.85
2018-01-12T06:46:46.351Z,63.55
2018-01-12T06:49:14.298Z,63.28
2018-01-12T06:51:41.822Z,63.20
2018-01-12T06:54:09.337Z,63.19
2018-01-12T06:56:36.895Z,63.15
2018-01-12T06:59:04.454Z,62.97
2018-01-12T07:01:31.958Z,63.59
2018-01-12T07:03:59.753Z,64.04
2018-01-12T07:06:27.275Z,64.31
2018-01-12T07:08:54.786Z,64.04
2018-01-12T07:11:22.351Z,63.98
2018-01-12T07:13:49.919Z,64.19
2018-01-12T07:16:17.483Z,64.39
2018-01-12T07:18:45.064Z,64.50
2018-01-12T07:21:24.488Z,64.11
2018-01-12T07:23:52.033Z,65.62
2018-01-12T07:26:19.585Z,65.23
2018-01-12T07:28:47.144Z,64.80
2018-01-12T07:31:14.853Z,65.59
2018-01-12T07:33:42.374Z,64.70
2018-01-12T07:36:09.892Z,65.30
2018-01-12T07:38:37.994Z,64.74
2018-01-12T07:41:05.556Z,65.07
2018-01-12T07:43:33.122Z,64.00
2018-01-12T07:46:00.858Z,63.61
2018-01-12T07:48:28.370Z,64.79
2018-01-12T07:50:55.892Z,63.25
2018-01-12T07:53:23.581Z,63.76
2018-01-12T07:55:51.113Z,63.88
2018-01-12T07:58:18.681Z,64.17
2018-01-12T08:00:51.830Z,63.77
2018-01-12T08:03:19.362Z,63.50
2018-01-12T08:05:46.868Z,62.10
2018-01-12T08:08:14.438Z,60.94
2018-01-12T08:10:41.945Z,61.12
2018-01-12T08:13:09.457Z,60.49
2018-01-12T08:15:37.016Z,60.60
2018-01-12T08:18:04.573Z,61.26
2018-01-12T08:20:32.133Z,61.68
2018-01-12T08:23:00.206Z,60.91
2018-01-12T08:25:27.764Z,60.60
2018-01-12T08:27:55.278Z,60.55
2018-01-12T08:30:23.165Z,59.72
2018-01-12T08:32:50.673Z,59.55
2018-01-12T08:35:18.217Z,59.18
2018-01-12T08:37:45.761Z,58.11
2018-01-12T08:40:13.277Z,59.08
2018-01-12T08:42:40.791Z,58.87
2018-01-12T08:45:08.361Z,57.97
2018-01-12T08:47:35.872Z,58.10
2018-01-12T08:50:03.385Z,58.14
2018-01-12T08:52:31.219Z,58.28
2018-01-12T08:54:58.849Z,58.33
2018-01-12T08:57:26.378Z,57.33
2018-01-12T08:59:54.148Z,58.00
2018-01-12T09:02:21.660Z,57.63
2018-01-12T09:04:49.220Z,57.46
2018-01-12T09:07:16.961Z,57.80
2018-01-12T09:09:44.538Z,58.92
2018-01-12T09:12:12.058Z,58.64
2018-01-12T09:14:50.601Z,57.73
2018-01-12T09:17:30.261Z,56.46
2018-01-12T09:20:10.210Z,57.64
2018-01-12T09:22:47.498Z,57.43
2018-01-12T09:25:26.115Z,56.93
2018-01-12T09:27:53.674Z,58.08
2018-01-12T09:30:21.556Z,57.30
2018-01-12T09:32:50.045Z,56.72
2018-01-12T09:35:18.200Z,57.22
2018-01-12T09:37:45.756Z,56.39
2018-01-12T09:40:28.348Z,56.46
2018-01-12T09:42:55.863Z,55.49
2018-01-12T09:45:23.403Z,55.34
2018-01-12T09:48:15.213Z,55.81
2018-01-12T09:50:42.781Z,54.89
2018-01-12T09:53:10.290Z,55.39
2018-01-12T09:55:38.065Z,56.20
2018-01-12T09:58:05.578Z,56.67
2018-01-12T10:00:50.289Z,57.16
2018-01-12T10:03:17.792Z,56.27
2018-01-12T10:05:45.327Z,55.99
2018-01-12T10:08:16.999Z,56.50
2018-01-12T10:10:45.054Z,56.46
2018-01-12T10:13:12.614Z,55.45
2018-01-12T10:15:40.479Z,54.87
2018-01-12T10:21:27.932Z,54.14
2018-01-12T10:23:55.460Z,55.14
2018-01-12T10:26:22.982Z,54.56
2018-01-12T10:29:02.378Z,54.73
2018-01-12T10:31:39.785Z,53.39
2018-01-12T10:34:08.174Z,53.09
2018-01-12T10:36:40.436Z,53.36
2018-01-12T10:39:19.856Z,52.40
2018-01-12T10:41:59.181Z,51.85
2018-01-12T10:44:26.929Z,52.69
2018-01-12T10:47:19.012Z,52.08
2018-01-12T10:49:58.306Z,52.84
2018-01-12T10:52:31.901Z,54.61
2018-01-12T10:54:59.473Z,54.62
2018-01-12T10:57:26.995Z,53.54
2018-01-12T10:59:54.515Z,52.15
2018-01-12T11:02:22.249Z,52.47
2018-01-12T11:04:49.762Z,51.22
2018-01-12T11:07:17.275Z,51.29
2018-01-12T11:09:45.125Z,50.82
2018-01-12T11:12:12.641Z,50.30
2018-01-12T11:14:40.161Z,48.25
2018-01-12T11:17:07.742Z,46.23
2018-01-12T11:19:35.266Z,46.17
2018-01-12T11:22:02.785Z,47.08
2018-01-12T11:24:30.680Z,47.19
2018-01-12T11:26:58.194Z,44.90
2018-01-12T11:29:25.717Z,43.46
2018-01-12T11:31:53.558Z,33.57
2018-01-12T11:34:21.533Z,28.28
2018-01-12T11:36:49.058Z,26.51
2018-01-12T11:39:16.617Z,22.45
2018-01-12T11:41:44.138Z,21.29
2018-01-12T11:44:11.662Z,21.89
2018-01-12T11:46:39.210Z,21.42
2018-01-12T11:49:06.725Z,22.80
2018-01-12T11:51:34.246Z,24.69
2018-01-12T11:54:01.921Z,28.02
2018-01-12T11:56:29.430Z,31.58
2018-01-12T11:58:56.942Z,33.71
2018-01-12T12:01:24.494Z,37.73
2018-01-12T12:03:52.055Z,37.23
2018-01-12T12:06:19.615Z,39.57
2018-01-12T12:08:47.162Z,39.21
2018-01-12T12:11:14.678Z,40.06
2018-01-12T12:13:42.193Z,44.48
2018-01-12T12:16:09.762Z,45.63
2018-01-12T12:18:37.308Z,43.87
2018-01-12T12:21:04.828Z,43.11
2018-01-12T12:23:32.406Z,46.79
2018-01-12T12:25:59.929Z,47.91
2018-01-12T12:28:27.446Z,48.09
2018-01-12T12:30:55.616Z,47.61
2018-01-12T12:33:23.125Z,48.43
2018-01-12T12:35:50.638Z,48.83
2018-01-12T12:38:18.600Z,49.20
2018-01-12T12:40:46.159Z,48.98
2018-01-12T12:43:13.669Z,48.46
2018-01-12T12:45:41.482Z,51.66
2018-01-12T12:48:08.993Z,51.14
2018-01-12T12:50:36.506Z,51.93
2018-01-12T12:53:04.238Z,50.30
2018-01-12T12:55:31.770Z,50.34
2018-01-12T12:58:00.284Z,50.79
2018-01-12T13:00:28.374Z,50.82
2018-01-12T13:02:55.943Z,49.90
2018-01-12T13:05:23.535Z,50.94
2018-01-12T13:07:51.463Z,52.32
2018-01-12T13:10:19.007Z,51.37
2018-01-12T13:12:46.681Z,50.12
2018-01-12T13:15:14.426Z,49.83
2018-01-12T13:17:42.113Z,49.82
2018-01-12T13:20:09.664Z,49.51
2018-01-12T13:22:37.514Z,48.38
2018-01-12T13:25:05.055Z,48.45
2018-01-12T13:27:32.568Z,48.00
2018-01-12T13:30:00.621Z,48.58
2018-01-12T13:32:28.175Z,48.48
2018-01-12T13:34:55.692Z,49.40
2018-01-12T13:37:23.602Z,49.02
2018-01-12T13:39:51.366Z,48.64
2018-01-12T13:42:18.925Z,49.29
2018-01-12T13:44:47.100Z,50.82
2018-01-12T13:47:14.658Z,49.01
2018-01-12T13:49:42.422Z,50.97
2018-01-12T13:52:10.187Z,50.57
2018-01-12T13:54:37.843Z,50.36
2018-01-12T13:57:05.408Z,51.09
2018-01-12T13:59:33.187Z,50.95
2018-01-12T14:02:01.037Z,51.54
2018-01-12T14:04:28.863Z,52.08
2018-01-12T14:06:56.570Z,52.68
2018-01-12T14:09:24.145Z,52.80
2018-01-12T14:11:51.684Z,52.09
2018-01-12T14:14:19.450Z,52.77
2018-01-12T14:16:47.112Z,52.70
2018-01-12T14:19:15.629Z,52.56
2018-01-12T14:21:43.554Z,53.37
2018-01-12T14:24:11.219Z,52.99
2018-01-12T14:26:38.984Z,52.73
2018-01-12T14:29:06.977Z,52.29
2018-01-12T14:31:34.795Z,53.68
2018-01-12T14:34:02.379Z,53.93
2018-01-12T14:36:30.233Z,54.20
2018-01-12T14:38:58.220Z,54.81
2018-01-12T14:41:26.079Z,53.22
2018-01-12T14:43:53.949Z,53.67
2018-01-12T14:46:21.533Z,53.99
2018-01-12T14:48:49.065Z,54.58
2018-01-12T14:51:16.745Z,54.32
2018-01-12T14:53:44.517Z,55.02
2018-01-12T14:56:12.075Z,53.83
2018-01-12T14:58:39.948Z,54.14
2018-01-12T15:01:07.525Z,55.06
2018-01-12T15:03:35.238Z,56.59
2018-01-12T15:06:03.134Z,55.70
2018-01-12T15:08:31.792Z,55.42
2018-01-12T15:10:59.368Z,55.49
2018-01-12T15:13:26.929Z,54.86
2018-01-12T15:15:54.476Z,54.58
2018-01-12T15:18:22.231Z,54.91
2018-01-12T15:20:49.793Z,55.33
2018-01-12T15:23:17.312Z,55.10
2018-01-12T15:25:44.839Z,55.34
2018-01-12T15:28:12.792Z,54.40
2018-01-12T15:30:41.562Z,55.31
2018-01-12T15:33:09.130Z,56.76
2018-01-12T15:35:37.025Z,57.09
2018-01-12T15:38:04.566Z,56.30
2018-01-12T15:40:32.312Z,55.98
2018-01-12T15:42:59.920Z,56.79
2018-01-12T15:45:27.446Z,56.72
2018-01-12T15:47:55.006Z,57.12
2018-01-12T15:50:22.753Z,56.98
2018-01-12T15:52:50.313Z,57.66
2018-01-12T15:55:17.872Z,57.55
2018-01-12T15:57:45.546Z,56.29
2018-01-12T16:00:13.092Z,56.84
2018-01-12T16:02:40.650Z,56.81
2018-01-12T16:05:08.722Z,57.53
2018-01-12T16:07:36.485Z,57.77
2018-01-12T16:10:04.002Z,57.93
2018-01-12T16:12:31.565Z,57.82
2018-01-12T16:14:59.103Z,59.40
2018-01-12T16:17:26.620Z,58.77
2018-01-12T16:19:54.814Z,58.22
2018-01-12T16:22:22.373Z,58.29
2018-01-12T16:24:49.913Z,58.19
2018-01-12T16:27:17.687Z,58.45
2018-01-12T16:29:45.337Z,58.79
2018-01-12T16:32:12.896Z,58.49
2018-01-12T16:34:40.557Z,57.78
2018-01-12T16:37:08.219Z,57.19
2018-01-12T16:39:36.957Z,57.95
2018-01-12T16:42:04.879Z,57.73
2018-01-12T16:44:32.740Z,58.53
2018-01-12T16:47:00.299Z,57.80
2018-01-12T16:49:27.961Z,56.90
2018-01-12T16:51:55.514Z,57.55
2018-01-12T16:54:23.078Z,57.20
2018-01-12T16:56:50.637Z,56.60
2018-01-12T16:59:18.198Z,57.37
2018-01-12T17:01:45.813Z,56.42
2018-01-12T17:04:13.416Z,57.09
2018-01-12T17:06:41.078Z,57.09
2018-01-12T17:09:08.594Z,56.39
2018-01-12T17:11:36.299Z,56.39
2018-01-12T17:14:03.878Z,56.80
2018-01-12T17:16:31.418Z,58.14
2018-01-12T17:18:59.385Z,58.59
2018-01-12T17:21:27.048Z,59.01
2018-01-12T17:23:55.018Z,59.71
2018-01-12T17:26:22.756Z,60.53
2018-01-12T17:28:50.444Z,59.56
2018-01-12T17:31:18.210Z,58.76
2018-01-12T17:33:46.995Z,58.15
2018-01-12T17:36:14.537Z,57.85
2018-01-12T17:38:42.219Z,57.65
2018-01-12T17:41:10.183Z,57.75
2018-01-12T17:43:38.820Z,57.95
2018-01-12T17:46:06.367Z,57.67
2018-01-12T17:48:34.195Z,58.72
2018-01-12T17:51:01.751Z,58.70
2018-01-12T17:53:29.333Z,59.28
2018-01-12T17:55:56.890Z,58.94
2018-01-12T17:58:24.428Z,57.68
2018-01-12T18:00:51.986Z,58.19
2018-01-12T18:03:19.752Z,58.07
2018-01-12T18:05:47.311Z,57.64
2018-01-12T18:08:14.870Z,57.29
2018-01-12T18:10:43.645Z,56.73
2018-01-12T18:13:11.169Z,57.70
2018-01-12T18:15:39.502Z,56.47
2018-01-12T18:18:07.154Z,57.90
2018-01-12T18:20:35.122Z,56.73
2018-01-12T18:23:02.887Z,56.29
2018-01-12T18:25:30.974Z,57.09
2018-01-12T18:27:58.938Z,55.95
2018-01-12T18:30:26.603Z,55.71
2018-01-12T18:32:54.852Z,56.48
2018-01-12T18:35:22.918Z,56.15
2018-01-12T18:37:51.125Z,56.81
2018-01-12T18:40:19.503Z,56.76
2018-01-12T18:42:47.459Z,56.86
2018-01-12T18:45:15.118Z,56.86
2018-01-12T18:47:43.207Z,56.43
2018-01-12T18:50:11.641Z,56.28
2018-01-12T18:52:39.929Z,56.76
2018-01-12T18:55:08.450Z,56.08
2018-01-12T18:57:36.615Z,56.81
2018-01-12T19:00:04.629Z,56.58
2018-01-12T19:02:32.954Z,56.56
2018-01-12T19:05:01.125Z,56.27
2018-01-12T19:07:29.208Z,56.11
2018-01-12T19:09:57.459Z,56.68
2018-01-12T19:12:25.438Z,57.30
2018-01-12T19:14:53.420Z,57.44
2018-01-12T19:17:21.677Z,57.71
2018-01-12T19:19:53.148Z,57.93
2018-01-12T19:22:22.226Z,57.66
2018-01-12T19:24:50.481Z,57.72
2018-01-12T19:27:18.387Z,57.65
2018-01-12T19:29:46.660Z,57.22
2018-01-12T19:32:15.045Z,57.67
2018-01-12T19:34:42.791Z,57.97
2018-01-12T19:37:10.803Z,58.77
2018-01-12T19:39:39.081Z,59.78
2018-01-12T19:42:06.907Z,59.13
2018-01-12T19:44:35.281Z,59.07
2018-01-12T19:47:03.674Z,59.14
2018-01-12T19:49:32.183Z,59.50
2018-01-12T19:52:00.321Z,58.78
2018-01-12T19:54:28.905Z,58.13
2018-01-12T19:56:57.154Z,57.85
2018-01-12T19:59:25.442Z,57.60
2018-01-12T20:01:53.974Z,57.76
2018-01-12T20:04:22.067Z,57.78
2018-01-12T20:06:51.074Z,58.22
2018-01-12T20:09:19.782Z,57.90
2018-01-12T20:11:47.765Z,58.56
2018-01-12T20:14:16.245Z,58.73
2018-01-12T20:16:44.014Z,58.13
2018-01-12T20:19:12.107Z,58.14
2018-01-12T20:21:40.151Z,57.57
2018-01-12T20:24:08.157Z,57.65
2018-01-12T20:26:36.188Z,57.81
2018-01-12T20:29:04.554Z,58.18
2018-01-12T20:31:32.496Z,57.85
2018-01-12T20:34:00.389Z,56.73
2018-01-12T20:36:28.756Z,56.96
2018-01-12T20:38:56.621Z,57.12
2018-01-12T20:41:24.570Z,56.94
2018-01-12T20:43:52.692Z,56.36
2018-01-12T20:46:20.589Z,55.93
2018-01-12T20:48:48.429Z,56.60
2018-01-12T20:51:16.599Z,57.63
2018-01-12T20:53:44.241Z,57.74
2018-01-12T20:56:13.153Z,57.08
2018-01-12T20:58:41.325Z,56.49
2018-01-12T21:01:10.008Z,56.52
2018-01-12T21:03:38.084Z,56.28
2018-01-12T21:06:06.343Z,56.34
2018-01-12T21:08:34.319Z,55.69
2018-01-12T21:11:02.290Z,55.73
2018-01-12T21:13:30.603Z,55.98
2018-01-12T21:15:58.623Z,56.18
2018-01-12T21:18:26.506Z,55.56
2018-01-12T21:20:55.440Z,55.58
2018-01-12T21:23:24.598Z,55.92
2018-01-12T21:25:52.466Z,56.43
2018-01-12T21:28:21.362Z,56.38
2018-01-12T21:30:49.319Z,57.23
2018-01-12T21:33:17.294Z,57.49
2018-01-12T21:35:45.328Z,56.65
2018-01-12T21:38:13.119Z,56.55
2018-01-12T21:40:41.097Z,56.50
2018-01-12T21:43:09.474Z,56.97
2018-01-12T21:45:37.217Z,56.81
2018-01-12T21:48:05.374Z,56.58
2018-01-12T21:50:33.975Z,56.88
2018-01-12T21:53:01.955Z,57.99
2018-01-12T21:55:29.811Z,57.87
2018-01-12T21:57:57.694Z,57.14
2018-01-12T22:00:26.583Z,57.45
2018-01-12T22:02:54.608Z,56.85
2018-01-12T22:05:22.619Z,56.52
2018-01-12T22:07:50.473Z,56.00
2018-01-12T22:10:18.341Z,56.77
2018-01-12T22:12:47.151Z,57.48
2018-01-12T22:15:14.789Z,57.64
2018-01-12T22:17:42.861Z,57.64
2018-01-12T22:20:11.575Z,57.18
2018-01-12T22:22:39.489Z,56.88
2018-01-12T22:25:07.571Z,56.76
2018-01-12T22:27:35.673Z,56.13
2018-01-12T22:30:03.433Z,57.32
2018-01-12T22:32:31.812Z,57.59
2018-01-12T22:34:59.997Z,56.66
2018-01-12T22:37:28.269Z,57.28
2018-01-12T22:39:57.328Z,56.88
2018-01-12T22:42:25.524Z,57.72
2018-01-12T22:44:53.270Z,58.16
2018-01-12T22:47:22.245Z,59.42
2018-01-12T22:49:50.464Z,58.10
2018-01-12T22:52:18.435Z,58.21
2018-01-12T22:54:46.407Z,57.26
2018-01-12T22:57:14.582Z,57.13
2018-01-12T22:59:42.351Z,57.53
2018-01-12T23:02:10.516Z,57.12
2018-01-12T23:04:38.897Z,57.18
2018-01-12T23:07:06.765Z,58.04
2018-01-12T23:09:35.032Z,58.07
2018-01-12T23:12:03.155Z,57.88
2018-01-12T23:14:30.979Z,57.49
2018-01-12T23:16:58.808Z,58.57
2018-01-12T23:19:26.396Z,59.20
2018-01-12T23:21:54.119Z,57.50
2018-01-12T23:24:21.983Z,57.06
2018-01-12T23:26:49.992Z,56.25
2018-01-12T23:29:18.688Z,56.71
2018-01-12T23:31:46.344Z,56.97
2018-01-12T23:34:14.600Z,56.95
2018-01-12T23:36:42.486Z,58.45
2018-01-12T23:39:10.246Z,58.64
2018-01-12T23:41:38.372Z,57.58
2018-01-12T23:44:06.197Z,56.77
2018-01-12T23:46:34.062Z,56.61
2018-01-12T23:49:02.028Z,57.12
2018-01-12T23:51:29.691Z,56.75
2018-01-12T23:53:57.546Z,56.86
2018-01-12T23:56:25.456Z,56.68
2018-01-12T23:58:53.028Z,56.65
